Aérodrome :
LOGIN :

Register | Disclaimer

   EN    FR    IT 

 

















- Airport Elevation : 512 ft
- IATA code : URO
- Download approach charts


LFOP - Rouen Vallée de Seine

CURRENT METAR :
  • 200130Z AUTO 17004KT 8000 BKN026 03/02 Q1023

EXPIRED METARs :
  • 200100Z AUTO 18005KT 7000 OVC027 03/03 Q1023
  • 200030Z AUTO 18002KT 9000 OVC028 03/02 Q1024
  • 200000Z AUTO 16002KT 8000 OVC029 03/03 Q1024
  • 192330Z AUTO 17002KT 9999 OVC029 03/03 Q1024
  • 192300Z AUTO 17002KT 9000 OVC029 03/03 Q1025

TAF TAF LFOP
Valid from the 19 at 18:00 until the 20 at 18:00 UTC


191700Z 1918/2018 VRB02KT 9999 SCT030
PROB40 1923/2006 4000 BR
BECMG 2004/2006 20012KT OVC012
PROB40
TEMPO 2006/2018 2000 DZRA OVC002
ATIS : +33 2 35 80 80 34
Met : +33 2 32 86 52 80
No reported NOTAMs for that airfield.





SOURCES & CREDITS :

   NOAA